createdAt,value
2022-08-10T00:01:44.227Z,9.52
2022-08-10T00:04:21.028Z,7.72
2022-08-10T00:06:49.609Z,9.07
2022-08-10T00:09:16.443Z,9.40
2022-08-10T00:11:43.317Z,8.73
2022-08-10T00:14:10.183Z,9.80
2022-08-10T00:16:37.028Z,8.95
2022-08-10T00:19:03.965Z,9.20
2022-08-10T00:21:30.814Z,9.00
2022-08-10T00:23:57.662Z,9.73
2022-08-10T00:26:24.561Z,10.05
2022-08-10T00:28:51.426Z,9.50
2022-08-10T00:31:18.271Z,8.68
2022-08-10T00:33:45.134Z,8.15
2022-08-10T00:36:12.067Z,8.63
2022-08-10T00:38:38.939Z,8.48
2022-08-10T00:41:06.195Z,8.93
2022-08-10T00:43:33.054Z,9.45
2022-08-10T00:46:00.564Z,8.23
2022-08-10T00:48:30.190Z,8.23
2022-08-10T00:50:59.456Z,7.88
2022-08-10T00:53:27.981Z,7.80
2022-08-10T00:57:14.271Z,7.55
2022-08-10T00:58:43.248Z,8.77
2022-08-10T01:02:07.260Z,7.85
2022-08-10T01:04:39.997Z,8.38
2022-08-10T01:07:02.603Z,9.07
2022-08-10T01:10:04.511Z,8.80
2022-08-10T01:12:52.010Z,8.80
2022-08-10T01:15:22.817Z,8.30
2022-08-10T01:18:17.250Z,8.60
2022-08-10T01:21:05.208Z,8.68
2022-08-10T01:23:56.466Z,8.52
2022-08-10T01:27:00.675Z,8.52
2022-08-10T01:29:36.979Z,8.30
2022-08-10T01:32:07.311Z,8.77
2022-08-10T01:34:54.529Z,8.65
2022-08-10T01:37:26.745Z,7.80
2022-08-10T01:39:58.788Z,8.20
2022-08-10T01:42:28.195Z,8.90
2022-08-10T01:45:02.322Z,8.52
2022-08-10T01:47:53.812Z,8.25
2022-08-10T01:51:00.278Z,9.00
2022-08-10T01:53:41.382Z,8.38
2022-08-10T01:56:11.783Z,8.70
2022-08-10T01:58:39.846Z,9.27
2022-08-10T02:01:10.221Z,9.88
2022-08-10T02:04:03.890Z,9.25
2022-08-10T02:06:28.397Z,9.68
2022-08-10T02:09:05.952Z,9.80
2022-08-10T02:11:55.930Z,10.30
2022-08-10T02:14:23.761Z,10.38
2022-08-10T02:16:52.573Z,10.75
2022-08-10T02:19:24.487Z,10.63
2022-08-10T02:22:36.729Z,10.45
2022-08-10T02:24:42.709Z,11.50
2022-08-10T02:27:11.389Z,10.48
2022-08-10T02:29:42.459Z,12.80
2022-08-10T02:32:11.252Z,12.15
2022-08-10T02:34:41.181Z,11.20
2022-08-10T02:37:10.684Z,11.65
2022-08-10T02:39:38.274Z,12.05
2022-08-10T02:45:14.245Z,12.63
2022-08-10T02:45:30.959Z,12.50
2022-08-10T02:48:07.470Z,12.38
2022-08-10T02:50:40.052Z,13.95
2022-08-10T02:53:54.408Z,13.73
2022-08-10T02:56:30.900Z,13.50
2022-08-10T02:59:05.781Z,14.48
2022-08-10T03:01:38.169Z,13.93
2022-08-10T03:04:08.228Z,14.07
2022-08-10T03:06:43.681Z,14.45
2022-08-10T03:09:15.194Z,14.05
2022-08-10T03:12:36.790Z,14.43
2022-08-10T03:14:32.680Z,15.23
2022-08-10T03:17:01.509Z,14.55
2022-08-10T03:20:34.943Z,15.55
2022-08-10T03:22:19.861Z,15.45
2022-08-10T03:24:47.886Z,16.33
2022-08-10T03:27:16.168Z,15.57
2022-08-10T03:30:23.211Z,17.27
2022-08-10T03:32:31.784Z,17.45
2022-08-10T03:34:59.600Z,15.43
2022-08-10T03:37:27.671Z,16.85
2022-08-10T03:39:57.798Z,16.02
2022-08-10T03:42:27.283Z,17.05
2022-08-10T03:44:56.179Z,17.58
2022-08-10T03:47:24.585Z,17.17
2022-08-10T03:49:51.785Z,18.08
2022-08-10T03:52:19.915Z,16.67
2022-08-10T03:54:47.364Z,17.92
2022-08-10T03:57:14.521Z,18.05
2022-08-10T03:59:41.616Z,17.00
2022-08-10T04:02:42.003Z,17.63
2022-08-10T04:04:56.423Z,17.33
2022-08-10T04:07:23.404Z,17.48
2022-08-10T04:09:56.150Z,18.48
2022-08-10T04:12:24.356Z,17.15
2022-08-10T04:14:53.312Z,16.52
2022-08-10T04:18:02.602Z,16.35
2022-08-10T04:20:20.883Z,16.55
2022-08-10T04:22:52.433Z,15.93
2022-08-10T04:25:21.645Z,15.13
2022-08-10T04:27:49.933Z,15.15
2022-08-10T04:30:17.313Z,14.55
2022-08-10T04:32:47.523Z,14.88
2022-08-10T04:35:16.865Z,13.30
2022-08-10T04:37:47.474Z,12.65
2022-08-10T04:40:25.302Z,12.68
2022-08-10T04:43:02.235Z,12.30
2022-08-10T04:45:50.286Z,12.20
2022-08-10T04:48:41.601Z,11.05
2022-08-10T04:51:10.637Z,11.25
2022-08-10T04:54:05.904Z,12.25
2022-08-10T04:56:32.058Z,10.55
2022-08-10T04:59:00.627Z,11.15
2022-08-10T05:02:22.082Z,10.55
2022-08-10T05:04:33.931Z,10.00
2022-08-10T05:07:01.790Z,10.35
2022-08-10T05:09:28.687Z,9.70
2022-08-10T05:11:55.533Z,8.38
2022-08-10T05:14:22.376Z,8.80
2022-08-10T05:16:49.247Z,8.60
2022-08-10T05:19:16.094Z,8.48
2022-08-10T05:22:03.344Z,7.93
2022-08-10T05:24:32.163Z,7.50
2022-08-10T05:27:10.217Z,6.82
2022-08-10T05:29:37.772Z,6.88
2022-08-10T05:32:05.106Z,6.90
2022-08-10T05:34:32.027Z,6.97
2022-08-10T05:36:59.160Z,6.95
2022-08-10T05:39:31.932Z,7.22
2022-08-10T05:42:01.100Z,6.20
2022-08-10T05:44:29.745Z,6.55
2022-08-10T05:46:56.994Z,6.70
2022-08-10T05:49:24.207Z,6.18
2022-08-10T05:51:51.846Z,5.60
2022-08-10T05:54:19.704Z,6.03
2022-08-10T05:56:56.455Z,5.95
2022-08-10T06:00:33.588Z,6.20
2022-08-10T06:02:41.949Z,6.10
2022-08-10T06:05:13.710Z,7.07
2022-08-10T06:07:46.772Z,5.68
2022-08-10T06:10:35.334Z,4.90
2022-08-10T06:13:34.263Z,5.65
2022-08-10T06:16:05.753Z,5.30
2022-08-10T06:18:33.137Z,5.15
2022-08-10T06:21:00.948Z,5.30
2022-08-10T06:23:30.513Z,5.70
2022-08-10T06:26:09.856Z,5.85
2022-08-10T06:29:01.998Z,4.80
2022-08-10T06:31:48.926Z,5.00
2022-08-10T06:34:25.225Z,6.22
2022-08-10T06:39:33.564Z,5.97
2022-08-10T06:42:24.421Z,5.80
2022-08-10T06:44:54.423Z,6.00
2022-08-10T06:47:28.944Z,6.38
2022-08-10T06:50:01.460Z,6.80
2022-08-10T06:52:33.228Z,7.35
2022-08-10T06:55:05.420Z,6.63
2022-08-10T06:57:34.293Z,6.70
2022-08-10T07:00:02.957Z,7.68
2022-08-10T07:02:41.483Z,7.80
2022-08-10T07:05:15.182Z,6.95
2022-08-10T07:07:44.342Z,7.47
2022-08-10T07:10:16.299Z,8.07
2022-08-10T07:12:44.601Z,8.05
2022-08-10T07:15:13.502Z,7.60
2022-08-10T07:17:41.644Z,7.68
2022-08-10T07:20:10.847Z,7.88
2022-08-10T07:23:23.435Z,7.63
2022-08-10T07:25:28.608Z,7.43
2022-08-10T07:28:00.215Z,8.43
2022-08-10T07:30:32.232Z,9.60
2022-08-10T07:33:01.725Z,10.40
2022-08-10T07:35:36.396Z,10.88
2022-08-10T07:38:13.068Z,10.15
2022-08-10T07:40:42.270Z,12.02
2022-08-10T07:43:10.021Z,14.02
2022-08-10T07:45:39.073Z,15.48
2022-08-10T07:48:11.729Z,16.55
2022-08-10T07:50:40.646Z,18.48
2022-08-10T07:53:21.753Z,17.67
2022-08-10T07:56:05.316Z,16.63
2022-08-10T07:58:52.573Z,15.43
2022-08-10T08:01:23.197Z,13.38
2022-08-10T08:04:04.941Z,14.38
2022-08-10T08:06:38.281Z,11.73
2022-08-10T08:09:05.924Z,12.90
2022-08-10T08:11:34.236Z,11.43
2022-08-10T08:14:02.147Z,10.68
2022-08-10T08:16:32.165Z,9.38
2022-08-10T08:24:05.581Z,9.68
2022-08-10T08:24:39.102Z,10.48
2022-08-10T08:27:06.357Z,8.85
2022-08-10T08:29:36.252Z,7.93
2022-08-10T08:32:04.948Z,7.93
2022-08-10T08:34:32.828Z,8.25
2022-08-10T08:37:02.678Z,7.93
2022-08-10T08:39:32.012Z,7.50
2022-08-10T08:42:43.943Z,7.57
2022-08-10T08:45:32.323Z,16.23
2022-08-10T08:48:09.394Z,9.20
2022-08-10T08:50:56.689Z,8.23
2022-08-10T08:54:00.999Z,9.75
2022-08-10T08:56:45.733Z,10.15
2022-08-10T08:59:24.172Z,8.77
2022-08-10T09:02:02.710Z,10.82
2022-08-10T09:04:55.776Z,11.63
2022-08-10T09:08:01.833Z,10.65
2022-08-10T09:10:44.829Z,10.80
2022-08-10T09:13:39.521Z,10.20
2022-08-10T09:16:18.758Z,9.55
2022-08-10T09:19:03.767Z,8.43
2022-08-10T09:21:58.644Z,8.77
2022-08-10T09:24:40.040Z,8.82
2022-08-10T09:27:19.950Z,7.57
2022-08-10T09:30:00.448Z,7.35
2022-08-10T09:36:14.871Z,6.90
2022-08-10T09:36:20.697Z,6.25
2022-08-10T09:38:55.231Z,7.85
2022-08-10T09:41:35.297Z,5.30
2022-08-10T09:44:33.870Z,4.85
2022-08-10T09:48:02.298Z,5.05
2022-08-10T09:51:28.373Z,5.00
2022-08-10T09:53:52.598Z,4.55
2022-08-10T09:56:29.836Z,4.82
2022-08-10T10:00:00.508Z,4.53
2022-08-10T10:02:28.724Z,4.70
2022-08-10T10:04:58.414Z,4.45
2022-08-10T10:07:29.677Z,5.10
2022-08-10T10:10:22.715Z,6.35
2022-08-10T10:12:58.436Z,6.30
2022-08-10T10:15:28.074Z,6.22
2022-08-10T10:18:13.751Z,5.97
2022-08-10T10:20:55.752Z,6.82
2022-08-10T10:23:41.001Z,5.65
2022-08-10T10:26:49.722Z,5.75
2022-08-10T10:29:56.290Z,5.53
2022-08-10T10:33:00.581Z,5.40
2022-08-10T10:35:34.335Z,10.10
2022-08-10T10:38:04.243Z,5.38
2022-08-10T10:40:50.046Z,4.80
2022-08-10T10:43:56.990Z,4.57
2022-08-10T10:46:26.865Z,4.88
2022-08-10T10:49:37.661Z,5.47
2022-08-10T10:52:34.120Z,5.45
2022-08-10T10:55:03.936Z,5.18
2022-08-10T10:58:03.394Z,4.93
2022-08-10T11:00:46.410Z,5.30
2022-08-10T11:03:42.008Z,5.63
2022-08-10T11:06:39.822Z,5.38
2022-08-10T11:10:05.076Z,4.75
2022-08-10T11:12:33.091Z,4.60
2022-08-10T11:15:42.857Z,6.60
2022-08-10T11:18:59.200Z,5.50
2022-08-10T11:21:54.735Z,4.28
2022-08-10T11:24:48.700Z,3.15
2022-08-10T11:27:44.261Z,3.45
2022-08-10T11:30:20.406Z,3.60
2022-08-10T11:33:31.007Z,3.70
2022-08-10T11:36:07.218Z,3.65
2022-08-10T11:39:11.136Z,3.50
2022-08-10T11:42:07.692Z,4.32
2022-08-10T11:44:59.932Z,5.55
2022-08-10T11:47:54.631Z,4.47
2022-08-10T11:50:33.068Z,5.05
2022-08-10T11:53:18.177Z,4.93
2022-08-10T11:55:49.504Z,4.95
2022-08-10T11:58:38.205Z,6.78
2022-08-10T12:01:09.200Z,6.28
2022-08-10T12:03:41.657Z,6.88
2022-08-10T12:06:13.733Z,6.43
2022-08-10T12:10:04.072Z,6.25
2022-08-10T12:11:34.193Z,6.95
2022-08-10T12:14:21.011Z,7.25
2022-08-10T12:17:05.787Z,6.70
2022-08-10T12:20:02.670Z,6.63
2022-08-10T12:22:38.668Z,6.20
2022-08-10T12:25:49.600Z,6.45
2022-08-10T12:28:13.896Z,6.32
2022-08-10T12:30:49.136Z,5.88
2022-08-10T12:34:02.671Z,5.80
2022-08-10T12:36:39.885Z,6.55
2022-08-10T12:39:15.985Z,6.07
2022-08-10T12:41:51.664Z,6.82
2022-08-10T12:44:41.210Z,6.60
2022-08-10T12:47:22.014Z,6.13
2022-08-10T12:50:29.799Z,5.95
2022-08-10T12:53:10.242Z,6.28
2022-08-10T12:55:39.167Z,6.95
2022-08-10T12:58:59.690Z,5.88
2022-08-10T13:01:15.697Z,6.20
2022-08-10T13:04:20.798Z,6.43
2022-08-10T13:06:41.137Z,6.47
2022-08-10T13:09:08.766Z,6.60
2022-08-10T13:12:39.203Z,6.25
2022-08-10T13:14:36.994Z,6.00
2022-08-10T13:17:06.452Z,6.07
2022-08-10T13:19:54.640Z,5.40
2022-08-10T13:22:27.499Z,5.68
2022-08-10T13:24:58.244Z,6.35
2022-08-10T13:28:00.061Z,5.55
2022-08-10T13:30:16.802Z,5.68
2022-08-10T13:32:50.917Z,5.85
2022-08-10T13:35:22.156Z,5.70
2022-08-10T13:37:52.392Z,5.65
2022-08-10T13:40:21.135Z,5.20
2022-08-10T13:42:49.707Z,5.20
2022-08-10T13:45:19.162Z,5.45
2022-08-10T13:47:50.284Z,5.38
2022-08-10T13:50:34.567Z,5.22
2022-08-10T13:53:03.919Z,5.60
2022-08-10T13:55:48.724Z,5.22
2022-08-10T13:58:28.024Z,5.50
2022-08-10T14:00:58.276Z,5.70
2022-08-10T14:03:27.377Z,5.32
2022-08-10T14:05:58.371Z,5.22
2022-08-10T14:08:29.290Z,4.93
2022-08-10T14:11:11.010Z,5.68
2022-08-10T14:13:55.046Z,4.72
2022-08-10T14:16:22.779Z,5.32
2022-08-10T14:18:52.323Z,5.53
2022-08-10T14:21:19.453Z,6.10
2022-08-10T14:23:53.248Z,5.63
2022-08-10T14:26:29.253Z,5.57
2022-08-10T14:29:08.077Z,4.82
2022-08-10T14:31:37.651Z,4.97
2022-08-10T14:34:09.010Z,5.82
2022-08-10T14:36:44.521Z,6.28
2022-08-10T14:39:40.181Z,5.38
2022-08-10T14:42:25.227Z,5.30
2022-08-10T14:44:58.297Z,5.60
2022-08-10T14:47:52.318Z,5.35
2022-08-10T14:50:31.410Z,6.35
2022-08-10T14:53:09.563Z,6.20
2022-08-10T14:55:59.221Z,6.30
2022-08-10T14:58:33.319Z,7.18
2022-08-10T15:01:01.394Z,7.38
2022-08-10T15:04:00.790Z,6.78
2022-08-10T15:06:30.596Z,6.57
2022-08-10T15:10:00.334Z,6.45
2022-08-10T15:12:25.038Z,6.38
2022-08-10T15:14:58.602Z,6.22
2022-08-10T15:17:37.488Z,6.00
2022-08-10T15:20:21.362Z,5.53
2022-08-10T15:22:52.105Z,5.72
2022-08-10T15:25:25.424Z,5.70
2022-08-10T15:28:10.433Z,5.47
2022-08-10T15:30:40.505Z,5.55
2022-08-10T15:33:56.948Z,5.78
2022-08-10T15:36:38.511Z,4.93
2022-08-10T15:40:08.829Z,5.53
2022-08-10T15:42:04.166Z,5.20
2022-08-10T15:44:37.500Z,5.53
2022-08-10T15:47:22.185Z,5.32
2022-08-10T15:50:03.793Z,5.07
2022-08-10T15:53:00.571Z,5.18
2022-08-10T15:55:41.341Z,5.00
2022-08-10T15:58:19.407Z,5.45
2022-08-10T16:01:00.429Z,5.22
2022-08-10T16:03:45.284Z,5.50
2022-08-10T16:06:46.287Z,6.05
2022-08-10T16:10:22.147Z,5.50
2022-08-10T16:12:29.334Z,5.25
2022-08-10T16:15:00.135Z,5.20
2022-08-10T16:17:28.234Z,5.95
2022-08-10T16:19:58.762Z,5.65
2022-08-10T16:22:34.187Z,9.02
2022-08-10T16:25:14.186Z,5.53
2022-08-10T16:27:43.336Z,5.80
2022-08-10T16:30:10.987Z,5.53
2022-08-10T16:32:39.866Z,5.38
2022-08-10T16:35:09.847Z,5.65
2022-08-10T16:37:57.931Z,6.28
2022-08-10T16:40:29.060Z,5.35
2022-08-10T16:42:57.691Z,5.47
2022-08-10T16:45:30.545Z,5.70
2022-08-10T16:47:59.360Z,5.95
2022-08-10T16:50:30.901Z,6.30
2022-08-10T16:53:02.209Z,5.65
2022-08-10T16:55:48.007Z,5.47
2022-08-10T16:58:20.883Z,6.25
2022-08-10T17:00:49.965Z,6.00
2022-08-10T17:04:04.459Z,5.60
2022-08-10T17:06:11.999Z,5.60
2022-08-10T17:08:48.283Z,5.80
2022-08-10T17:11:17.812Z,5.88
2022-08-10T17:13:45.106Z,6.10
2022-08-10T17:16:16.561Z,6.47
2022-08-10T17:18:46.937Z,6.20
2022-08-10T17:21:24.123Z,6.30
2022-08-10T17:23:54.640Z,6.28
2022-08-10T17:26:35.562Z,6.82
2022-08-10T17:29:53.175Z,6.30
2022-08-10T17:32:13.564Z,6.32
2022-08-10T17:34:46.663Z,6.25
2022-08-10T17:37:20.063Z,6.63
2022-08-10T17:39:52.753Z,6.88
2022-08-10T17:42:22.267Z,5.82
2022-08-10T17:44:52.441Z,10.52
2022-08-10T17:47:33.177Z,7.75
2022-08-10T17:50:00.907Z,7.18
2022-08-10T17:52:32.531Z,6.85
2022-08-10T17:55:08.483Z,6.82
2022-08-10T17:57:37.868Z,6.10
2022-08-10T18:00:10.710Z,6.78
2022-08-10T18:02:40.558Z,6.72
2022-08-10T18:05:10.022Z,6.45
2022-08-10T18:07:40.648Z,6.32
2022-08-10T18:10:10.809Z,7.18
2022-08-10T18:12:57.602Z,6.75
2022-08-10T18:15:27.592Z,6.38
2022-08-10T18:17:59.877Z,5.93
2022-08-10T18:20:34.811Z,6.20
2022-08-10T18:23:02.587Z,6.15
2022-08-10T18:25:39.029Z,6.10
2022-08-10T18:28:21.411Z,6.20
2022-08-10T18:30:51.210Z,6.22
2022-08-10T18:33:30.659Z,7.05
2022-08-10T18:36:05.996Z,6.78
2022-08-10T18:38:36.352Z,6.65
2022-08-10T18:41:11.322Z,7.05
2022-08-10T18:44:07.323Z,7.00
2022-08-10T18:46:45.524Z,7.40
2022-08-10T18:49:16.836Z,6.17
2022-08-10T18:51:47.422Z,6.55
2022-08-10T18:54:39.271Z,5.78
2022-08-10T18:57:41.121Z,6.43
2022-08-10T19:00:14.823Z,6.90
2022-08-10T19:02:56.111Z,6.85
2022-08-10T19:05:57.936Z,8.32
2022-08-10T19:09:46.312Z,5.68
2022-08-10T19:12:30.436Z,5.60
2022-08-10T19:15:14.734Z,5.63
2022-08-10T19:18:05.998Z,5.20
2022-08-10T19:21:03.338Z,5.72
2022-08-10T19:23:30.144Z,6.22
2022-08-10T19:26:44.316Z,6.07
2022-08-10T19:30:08.282Z,6.63
2022-08-10T19:32:42.829Z,5.90
2022-08-10T19:36:03.566Z,6.00
2022-08-10T19:38:37.852Z,6.50
2022-08-10T19:41:32.006Z,6.70
2022-08-10T19:44:17.822Z,5.95
2022-08-10T19:46:51.748Z,5.70
2022-08-10T19:49:50.117Z,6.13
2022-08-10T19:52:45.323Z,6.35
2022-08-10T19:55:36.601Z,6.20
2022-08-10T19:58:08.082Z,7.20
2022-08-10T20:00:46.977Z,11.93
2022-08-10T20:03:21.314Z,10.57
2022-08-10T20:06:38.388Z,6.57
2022-08-10T20:09:50.627Z,4.97
2022-08-10T20:12:39.646Z,4.88
2022-08-10T20:17:52.129Z,4.47
2022-08-10T20:20:49.622Z,5.65
2022-08-10T20:23:26.312Z,6.05
2022-08-10T20:26:14.967Z,3.67
2022-08-10T20:29:03.985Z,8.57
2022-08-10T20:31:50.763Z,9.75
2022-08-10T20:34:22.931Z,11.43
2022-08-10T20:36:58.463Z,12.00
2022-08-10T20:39:41.974Z,12.02
2022-08-10T20:42:33.594Z,11.13
2022-08-10T20:45:08.173Z,11.93
2022-08-10T20:47:56.439Z,11.80
2022-08-10T20:50:48.713Z,9.80
2022-08-10T20:53:18.802Z,13.18
2022-08-10T20:55:54.676Z,9.68
2022-08-10T20:58:46.334Z,8.60
2022-08-10T21:02:06.598Z,9.63
2022-08-10T21:04:43.838Z,6.70
2022-08-10T21:07:38.458Z,5.75
2022-08-10T21:10:52.343Z,6.00
2022-08-10T21:13:54.343Z,6.53
2022-08-10T21:16:57.962Z,5.95
2022-08-10T21:20:00.524Z,4.95
2022-08-10T21:22:37.713Z,12.88
2022-08-10T21:25:06.860Z,7.25
2022-08-10T21:27:49.657Z,8.57
2022-08-10T21:30:53.228Z,6.43
2022-08-10T21:33:45.259Z,7.57
2022-08-10T21:36:33.808Z,7.57
2022-08-10T21:39:19.842Z,6.80
2022-08-10T21:42:47.243Z,4.40
2022-08-10T21:45:58.163Z,3.80
2022-08-10T21:49:24.086Z,4.03
2022-08-10T21:52:13.006Z,3.95
2022-08-10T21:55:58.079Z,4.50
2022-08-10T21:58:46.284Z,4.03
2022-08-10T22:01:47.721Z,3.75
2022-08-10T22:04:38.133Z,4.22
2022-08-10T22:07:28.610Z,3.60
2022-08-10T22:10:25.670Z,4.03
2022-08-10T22:13:12.791Z,4.20
2022-08-10T22:16:11.096Z,4.47
2022-08-10T22:19:17.535Z,4.05
2022-08-10T22:22:28.117Z,3.70
2022-08-10T22:25:20.469Z,3.47
2022-08-10T22:28:17.462Z,3.38
2022-08-10T22:31:31.569Z,3.35
2022-08-10T22:34:52.133Z,3.60
2022-08-10T22:38:11.075Z,3.30
2022-08-10T22:41:03.210Z,3.10
2022-08-10T22:43:51.788Z,3.70
2022-08-10T22:46:46.918Z,2.78
2022-08-10T22:49:21.086Z,3.30
2022-08-10T22:51:56.253Z,3.08
2022-08-10T22:57:34.560Z,3.20
2022-08-10T23:00:17.513Z,2.90
2022-08-10T23:03:12.486Z,3.05
2022-08-10T23:05:45.455Z,4.03
2022-08-10T23:08:30.608Z,3.85
2022-08-10T23:11:05.381Z,3.03
2022-08-10T23:13:36.876Z,3.13
2022-08-10T23:16:38.731Z,3.20
2022-08-10T23:19:11.509Z,4.07
2022-08-10T23:22:04.225Z,3.72
2022-08-10T23:24:52.413Z,3.97
2022-08-10T23:27:21.762Z,4.65
2022-08-10T23:30:17.816Z,4.97
2022-08-10T23:32:49.398Z,5.82
2022-08-10T23:36:31.445Z,4.25
2022-08-10T23:38:16.673Z,4.50
2022-08-10T23:40:47.256Z,5.68
2022-08-10T23:43:40.761Z,7.43
2022-08-10T23:46:13.113Z,6.65
2022-08-10T23:48:45.178Z,7.80
2022-08-10T23:51:16.176Z,7.00
2022-08-10T23:53:46.423Z,6.85
2022-08-10T23:56:18.107Z,6.65
2022-08-10T23:58:50.150Z,7.10
